Time;durP1;ratioP1;P1;durP2;ratioP2;P2;SDS_P1;SDS_P2;PMS_P1;PMS_P2;Temp;Humidity;BMP_temperature;BMP_pressure;BME280_temperature;BME280_humidity;BME280_pressure;Samples;Min_cycle;Max_cycle;Signal;HPM_P1;HPM_P2
2024/04/01 00:00:30;;;;;;;16.58;2.58;;;;;;;13.02;100.00;96878.38;5001637;28;20163;-66
2024/04/01 00:02:55;;;;;;;18.10;2.80;;;;;;;12.93;100.00;96882.19;4999073;28;20058;-64
2024/04/01 00:05:23;;;;;;;17.10;2.03;;;;;;;12.99;100.00;96873.56;5017223;28;20022;-67
2024/04/01 00:07:51;;;;;;;15.35;2.17;;;;;;;13.02;100.00;96917.50;5000225;28;20372;-65
2024/04/01 00:10:20;;;;;;;11.20;2.20;;;;;;;12.61;100.00;96795.16;5003677;28;20321;-65
2024/04/01 00:12:45;;;;;;;13.93;2.93;;;;;;;13.19;100.00;96849.25;4998879;28;20151;-67
2024/04/01 00:15:16;;;;;;;11.30;2.15;;;;;;;13.05;100.00;96810.16;4985616;28;20955;-66
2024/04/01 00:17:42;;;;;;;8.45;1.15;;;;;;;13.16;100.00;96854.88;5032868;28;20084;-64
2024/04/01 00:20:07;;;;;;;11.27;1.85;;;;;;;13.01;100.00;96767.19;4999465;28;20029;-65
2024/04/01 00:22:33;;;;;;;9.18;1.27;;;;;;;13.23;100.00;96811.28;4999797;28;20185;-66
2024/04/01 00:24:58;;;;;;;8.15;1.23;;;;;;;13.27;100.00;96818.50;5000336;28;20034;-66
2024/04/01 00:27:24;;;;;;;11.88;1.80;;;;;;;13.24;100.00;96821.53;5000250;28;20060;-64
2024/04/01 00:29:49;;;;;;;7.47;1.08;;;;;;;13.27;100.00;96762.91;4998747;28;20109;-68
2024/04/01 00:32:20;;;;;;;13.10;1.88;;;;;;;13.26;100.00;96777.75;5003948;28;20480;-64
2024/04/01 00:34:45;;;;;;;12.07;1.85;;;;;;;13.07;100.00;96737.69;4999775;28;20096;-68
2024/04/01 00:37:13;;;;;;;13.82;2.00;;;;;;;13.08;100.00;96790.66;5003451;28;20575;-65
2024/04/01 00:39:39;;;;;;;14.85;2.22;;;;;;;13.02;100.00;96765.41;4999064;28;20030;-66
2024/04/01 00:42:04;;;;;;;13.27;1.60;;;;;;;12.68;100.00;96723.72;5005682;28;20528;-65
2024/04/01 00:44:35;;;;;;;7.20;1.30;;;;;;;13.11;100.00;96753.72;4998113;28;20025;-63
2024/04/01 00:47:03;;;;;;;14.95;1.60;;;;;;;12.67;100.00;96756.03;5003992;28;20034;-63
2024/04/01 00:49:29;;;;;;;12.88;1.70;;;;;;;12.98;100.00;96731.09;4998251;28;20227;-64
2024/04/01 00:51:55;;;;;;;7.38;1.80;;;;;;;12.87;100.00;96739.56;5000633;28;20124;-66
2024/04/01 00:54:23;;;;;;;10.90;1.77;;;;;;;12.91;100.00;96721.69;4997095;28;20045;-63
2024/04/01 00:56:50;;;;;;;16.48;2.50;;;;;;;12.64;100.00;96706.91;4994171;28;20026;-62
2024/04/01 00:59:17;;;;;;;11.85;2.03;;;;;;;12.64;100.00;96693.06;4998061;28;20057;-66
2024/04/01 01:01:45;;;;;;;8.88;1.48;;;;;;;12.90;100.00;96676.53;5000241;28;20042;-64
2024/04/01 01:04:11;;;;;;;10.63;1.20;;;;;;;13.22;100.00;96648.69;5013998;28;20034;-63
2024/04/01 01:06:38;;;;;;;16.65;2.30;;;;;;;13.20;100.00;96653.31;5016288;28;20451;-63
2024/04/01 01:09:05;;;;;;;9.27;1.75;;;;;;;13.12;100.00;96634.50;5031806;28;20039;-63
2024/04/01 01:11:31;;;;;;;10.88;1.73;;;;;;;13.48;100.00;96644.34;5004027;28;20568;-64
2024/04/01 01:13:56;;;;;;;9.35;1.83;;;;;;;13.56;100.00;96661.56;4977669;28;20030;-67
2024/04/01 01:16:24;;;;;;;12.82;2.20;;;;;;;13.42;100.00;96632.94;5000188;28;20483;-61
2024/04/01 01:18:51;;;;;;;8.32;1.80;;;;;;;13.41;100.00;96648.81;5000142;28;20045;-62
2024/04/01 01:21:17;;;;;;;15.15;1.83;;;;;;;13.44;100.00;96641.34;4999759;28;20066;-63
2024/04/01 01:23:42;;;;;;;11.70;1.83;;;;;;;13.44;100.00;96651.81;4999657;28;20106;-63
2024/04/01 01:26:10;;;;;;;10.30;1.33;;;;;;;13.62;100.00;96685.03;4993225;28;20030;-65
2024/04/01 01:28:35;;;;;;;10.63;1.30;;;;;;;13.81;100.00;96669.44;5010544;28;20033;-67
2024/04/01 01:31:01;;;;;;;16.55;2.03;;;;;;;13.55;100.00;96589.50;5011081;28;20412;-66
2024/04/01 01:33:27;;;;;;;13.75;1.80;;;;;;;13.55;100.00;96646.94;4997070;28;20084;-68
2024/04/01 01:35:53;;;;;;;10.70;1.80;;;;;;;13.27;100.00;96601.09;4982156;28;20034;-65
2024/04/01 01:38:18;;;;;;;10.75;1.58;;;;;;;13.72;100.00;96566.25;4980375;28;20548;-64
2024/04/01 01:40:44;;;;;;;12.02;1.95;;;;;;;14.04;100.00;96499.81;4997224;28;20113;-68
2024/04/01 01:43:12;;;;;;;10.82;1.67;;;;;;;14.03;100.00;96597.50;5005209;28;20069;-69
2024/04/01 01:45:40;;;;;;;16.88;2.17;;;;;;;14.04;100.00;96586.03;4991938;28;20022;-67
2024/04/01 01:48:06;;;;;;;16.23;1.80;;;;;;;14.04;100.00;96578.19;4979077;28;20026;-66
2024/04/01 01:50:33;;;;;;;9.48;1.88;;;;;;;13.85;100.00;96618.34;4993562;28;20698;-65
2024/04/01 01:53:02;;;;;;;13.32;1.77;;;;;;;13.83;100.00;96594.25;5003942;28;20030;-67
2024/04/01 01:55:27;;;;;;;9.48;1.90;;;;;;;13.90;100.00;96589.78;4979453;28;20029;-68
2024/04/01 01:57:53;;;;;;;13.88;1.70;;;;;;;13.94;100.00;96640.59;4978935;28;20359;-65
2024/04/01 02:00:18;;;;;;;16.83;2.47;;;;;;;13.93;100.00;96531.09;5010152;28;20242;-66
2024/04/01 02:02:44;;;;;;;10.55;1.98;;;;;;;13.99;100.00;96606.78;4999130;28;20149;-66
2024/04/01 02:05:12;;;;;;;6.57;1.30;;;;;;;13.76;100.00;96580.47;4996835;28;20027;-69
2024/04/01 02:07:40;;;;;;;10.13;1.37;;;;;;;13.93;100.00;96563.22;4976680;28;20098;-66
2024/04/01 02:10:06;;;;;;;11.73;1.60;;;;;;;13.65;100.00;96553.22;4985273;28;20065;-63
2024/04/01 02:12:34;;;;;;;11.18;1.50;;;;;;;13.71;100.00;96512.41;4998531;28;20404;-65
2024/04/01 02:14:59;;;;;;;10.27;1.48;;;;;;;13.73;100.00;96507.78;4994733;28;20030;-70
2024/04/01 02:17:27;;;;;;;12.93;1.98;;;;;;;13.60;100.00;96480.78;5003922;28;20026;-65
2024/04/01 02:19:53;;;;;;;10.95;1.85;;;;;;;13.67;100.00;96602.63;5013312;28;20026;-67
2024/04/01 02:22:22;;;;;;;11.48;1.92;;;;;;;13.69;100.00;96541.38;5000864;28;20039;-66
2024/04/01 02:24:48;;;;;;;8.15;1.73;;;;;;;13.48;100.00;96492.94;4994931;28;20064;-64
2024/04/01 02:27:15;;;;;;;8.52;1.63;;;;;;;13.83;100.00;96608.13;5031350;28;20139;-67
2024/04/01 02:29:43;;;;;;;8.90;1.13;;;;;;;13.87;100.00;96556.25;4997184;28;20033;-66
2024/04/01 02:32:08;;;;;;;13.02;1.77;;;;;;;13.84;100.00;96562.72;5000545;28;20040;-67
2024/04/01 02:34:34;;;;;;;9.80;2.20;;;;;;;13.88;100.00;96510.84;4995394;28;20030;-63
2024/04/01 02:37:04;;;;;;;8.73;1.15;;;;;;;13.89;100.00;96538.56;5015181;28;20756;-65
2024/04/01 02:39:33;;;;;;;8.98;1.30;;;;;;;14.09;100.00;96546.19;4997462;28;20026;-65
2024/04/01 02:41:58;;;;;;;7.80;1.95;;;;;;;13.93;100.00;96576.28;5019556;28;20025;-62
2024/04/01 02:44:24;;;;;;;10.23;1.45;;;;;;;13.92;100.00;96501.53;5013311;28;20092;-67
2024/04/01 02:46:54;;;;;;;10.85;1.25;;;;;;;13.88;100.00;96564.91;4992647;28;20452;-68
2024/04/01 02:49:20;;;;;;;8.80;1.40;;;;;;;13.77;100.00;96621.25;5012599;28;20065;-66
2024/04/01 02:51:47;;;;;;;8.23;1.33;;;;;;;13.78;100.00;96558.34;4997827;28;20101;-64
2024/04/01 02:54:13;;;;;;;7.60;1.23;;;;;;;13.76;100.00;96573.44;4996547;28;20113;-62
2024/04/01 02:56:39;;;;;;;7.82;1.30;;;;;;;13.81;100.00;96584.03;5002005;28;20042;-64
2024/04/01 02:59:09;;;;;;;8.57;1.23;;;;;;;13.79;100.00;96595.72;5001577;28;20030;-66
2024/04/01 03:01:39;;;;;;;8.73;1.55;;;;;;;13.38;100.00;96548.25;4998308;28;20054;-59
2024/04/01 03:04:08;;;;;;;7.82;1.48;;;;;;;13.61;100.00;96558.09;4998217;28;20178;-62
2024/04/01 03:06:33;;;;;;;6.60;0.90;;;;;;;13.61;100.00;96518.13;4995978;28;20044;-65
2024/04/01 03:08:59;;;;;;;9.27;1.33;;;;;;;13.58;100.00;96480.19;4997600;28;20018;-66
2024/04/01 03:11:25;;;;;;;5.63;1.38;;;;;;;13.54;100.00;96551.31;5012345;28;20022;-67
2024/04/01 03:13:52;;;;;;;9.43;1.80;;;;;;;13.62;100.00;96572.75;5012536;28;20673;-70
2024/04/01 03:16:24;;;;;;;5.78;1.02;;;;;;;13.75;100.00;96545.72;4997145;28;20050;-62
2024/04/01 03:18:51;;;;;;;5.57;0.98;;;;;;;13.80;100.00;96581.66;4999683;28;20065;-61
2024/04/01 03:21:17;;;;;;;9.82;1.17;;;;;;;13.72;100.00;96561.03;4994762;28;20026;-62
2024/04/01 03:23:43;;;;;;;9.18;1.52;;;;;;;13.95;100.00;96628.34;5000082;28;20041;-65
2024/04/01 03:26:08;;;;;;;8.43;1.10;;;;;;;13.92;100.00;96653.06;5018933;28;20437;-67
2024/04/01 03:28:34;;;;;;;5.43;1.02;;;;;;;13.93;100.00;96659.09;5017378;28;20112;-63
2024/04/01 03:31:11;;;;;;;8.98;1.13;;;;;;;13.87;100.00;96612.91;5017191;28;20504;-69
2024/04/01 03:33:36;;;;;;;6.60;1.20;;;;;;;13.89;100.00;96653.50;5000175;28;20654;-65
2024/04/01 03:36:02;;;;;;;6.00;0.95;;;;;;;13.82;100.00;96637.88;4983755;28;20125;-63
2024/04/01 03:38:27;;;;;;;7.32;0.85;;;;;;;13.87;100.00;96663.34;5001346;28;20072;-67
2024/04/01 03:40:53;;;;;;;11.18;1.65;;;;;;;13.87;100.00;96671.19;5005557;28;20087;-65
2024/04/01 03:43:21;;;;;;;9.05;1.30;;;;;;;13.89;100.00;96687.47;5002177;28;20045;-70
2024/04/01 03:45:59;;;;;;;7.10;1.02;;;;;;;13.91;100.00;96648.03;5005359;28;20567;-66
2024/04/01 03:48:27;;;;;;;10.55;2.10;;;;;;;13.86;100.00;96640.06;5001930;28;20030;-66
2024/04/01 03:50:55;;;;;;;6.55;1.33;;;;;;;13.85;100.00;96686.28;4985318;28;20669;-63
2024/04/01 03:53:20;;;;;;;6.65;1.00;;;;;;;13.96;100.00;96688.22;5033067;28;20025;-64
2024/04/01 03:55:49;;;;;;;7.45;1.08;;;;;;;13.89;100.00;96631.78;5000949;28;20021;-64
2024/04/01 03:58:17;;;;;;;12.70;1.40;;;;;;;13.72;100.00;96668.88;4998957;28;20477;-65
2024/04/01 04:00:42;;;;;;;6.68;1.30;;;;;;;13.71;100.00;96709.09;5002544;28;20536;-65
2024/04/01 04:03:08;;;;;;;10.55;2.08;;;;;;;13.65;100.00;96657.69;5000590;28;20060;-63
2024/04/01 04:05:35;;;;;;;10.55;1.25;;;;;;;13.69;100.00;96676.34;5016140;28;20113;-64
2024/04/01 04:08:01;;;;;;;5.50;1.00;;;;;;;13.39;100.00;96521.13;5015250;28;20036;-60
2024/04/01 04:10:29;;;;;;;10.95;2.00;;;;;;;13.28;100.00;96598.25;5001582;28;20030;-68
2024/04/01 04:12:56;;;;;;;16.58;1.67;;;;;;;13.36;100.00;96644.25;4999416;28;20046;-62
2024/04/01 04:15:24;;;;;;;11.20;1.77;;;;;;;13.34;100.00;96708.09;5002583;28;20163;-63
2024/04/01 04:17:50;;;;;;;11.00;1.73;;;;;;;13.29;100.00;96711.31;5000161;28;20476;-64
2024/04/01 04:20:16;;;;;;;11.07;2.28;;;;;;;13.32;100.00;96710.91;5001806;28;20034;-67
2024/04/01 04:22:44;;;;;;;10.23;1.60;;;;;;;13.06;100.00;96664.84;4997010;28;20034;-64
2024/04/01 04:25:10;;;;;;;8.70;1.55;;;;;;;13.13;100.00;96628.28;5016772;28;20125;-63
2024/04/01 04:27:36;;;;;;;7.43;1.45;;;;;;;13.35;100.00;96702.66;4998829;28;20029;-66
2024/04/01 04:30:01;;;;;;;9.90;1.33;;;;;;;13.30;100.00;96686.78;4996637;28;20496;-69
2024/04/01 04:32:27;;;;;;;11.25;1.60;;;;;;;13.24;100.00;96698.88;5000598;28;20788;-63
2024/04/01 04:34:52;;;;;;;6.53;1.08;;;;;;;13.30;100.00;96665.91;5015569;28;20049;-63
2024/04/01 04:37:17;;;;;;;7.10;1.20;;;;;;;13.33;100.00;96686.41;5001082;28;20037;-62
2024/04/01 04:39:43;;;;;;;5.90;1.13;;;;;;;13.42;100.00;96707.84;5000239;28;20664;-65
2024/04/01 04:42:13;;;;;;;9.52;1.23;;;;;;;13.53;100.00;96662.81;5020357;28;20104;-69
2024/04/01 04:44:38;;;;;;;12.48;2.08;;;;;;;13.25;100.00;96634.41;4983606;28;20062;-71
2024/04/01 04:47:06;;;;;;;10.07;1.45;;;;;;;13.06;100.00;96670.84;5014703;28;20029;-69
2024/04/01 04:49:34;;;;;;;10.80;1.45;;;;;;;13.06;100.00;96651.78;4990034;28;20041;-69
2024/04/01 04:51:59;;;;;;;9.88;1.50;;;;;;;13.13;100.00;96699.53;4996746;28;20140;-69
2024/04/01 04:54:25;;;;;;;10.13;1.58;;;;;;;12.95;100.00;96668.09;5002048;28;20029;-70
2024/04/01 04:56:50;;;;;;;10.32;1.23;;;;;;;13.17;100.00;96679.03;5002480;28;20057;-69
2024/04/01 04:59:16;;;;;;;8.55;1.38;;;;;;;13.22;100.00;96674.78;5002376;28;20469;-70
2024/04/01 05:01:42;;;;;;;7.70;1.13;;;;;;;13.26;100.00;96689.00;5001388;28;20125;-69
2024/04/01 05:04:07;;;;;;;7.72;1.08;;;;;;;13.15;100.00;96628.88;4983294;28;20033;-70
2024/04/01 05:06:32;;;;;;;4.43;1.00;;;;;;;13.24;100.00;96654.50;5000193;28;20356;-68
2024/04/01 05:08:58;;;;;;;8.85;1.25;;;;;;;13.43;100.00;96722.50;4982462;28;20051;-69
2024/04/01 05:11:27;;;;;;;8.00;1.55;;;;;;;13.39;100.00;96750.81;5015612;28;20030;-69
2024/04/01 05:13:52;;;;;;;6.63;1.50;;;;;;;13.37;100.00;96731.16;5001630;28;20072;-68
2024/04/01 05:16:18;;;;;;;9.63;1.48;;;;;;;13.39;100.00;96693.41;5002762;28;20062;-71
2024/04/01 05:18:43;;;;;;;7.35;1.10;;;;;;;13.14;100.00;96632.47;5016241;28;20441;-71
2024/04/01 05:21:08;;;;;;;9.32;1.08;;;;;;;13.31;100.00;96666.75;5001755;28;20053;-71
2024/04/01 05:23:36;;;;;;;6.93;0.98;;;;;;;13.27;100.00;96703.69;4999596;28;20832;-69
2024/04/01 05:26:02;;;;;;;6.40;0.82;;;;;;;13.37;100.00;96692.00;5000434;28;20095;-67
2024/04/01 05:28:27;;;;;;;6.50;1.02;;;;;;;13.31;100.00;96718.97;5032339;28;20042;-69
2024/04/01 05:30:53;;;;;;;8.98;1.95;;;;;;;13.36;100.00;96745.22;4982836;28;20707;-67
2024/04/01 05:33:35;;;;;;;8.48;1.75;;;;;;;13.31;100.00;96711.94;4999291;28;20076;-69
2024/04/01 05:36:03;;;;;;;15.13;1.80;;;;;;;13.19;100.00;96718.78;4978994;28;20100;-68
2024/04/01 05:38:31;;;;;;;9.75;1.67;;;;;;;13.02;100.00;96705.41;5000477;28;20084;-68
2024/04/01 05:40:56;;;;;;;10.63;2.08;;;;;;;13.03;100.00;96725.25;5036760;28;20031;-68
2024/04/01 05:43:27;;;;;;;9.68;1.70;;;;;;;12.93;100.00;96707.44;5001140;28;20029;-70
2024/04/01 05:45:55;;;;;;;9.30;2.05;;;;;;;12.93;100.00;96696.19;5035990;28;20491;-67
2024/04/01 05:48:23;;;;;;;12.57;2.15;;;;;;;12.95;100.00;96738.53;5001927;28;20030;-72
2024/04/01 05:50:49;;;;;;;8.52;1.55;;;;;;;12.99;100.00;96731.88;4981841;28;20147;-71
2024/04/01 05:53:15;;;;;;;7.68;1.17;;;;;;;12.97;100.00;96758.19;4998140;28;20163;-71
2024/04/01 05:55:40;;;;;;;9.45;1.33;;;;;;;13.01;100.00;96725.44;5017820;28;20030;-72
2024/04/01 05:58:10;;;;;;;7.82;1.33;;;;;;;13.14;100.00;96748.09;5001071;28;20509;-71
2024/04/01 06:00:36;;;;;;;8.05;1.08;;;;;;;13.10;100.00;96749.50;4985508;28;20049;-69
2024/04/01 06:03:01;;;;;;;7.85;1.50;;;;;;;13.08;100.00;96746.31;4984487;28;20049;-70
2024/04/01 06:05:29;;;;;;;9.73;1.30;;;;;;;13.07;100.00;96729.84;5032283;28;20349;-70
2024/04/01 06:07:57;;;;;;;9.27;1.52;;;;;;;13.04;100.00;96732.06;4983488;28;20537;-71
2024/04/01 06:10:24;;;;;;;12.73;1.77;;;;;;;13.08;100.00;96728.03;4995674;28;20853;-69
2024/04/01 06:12:52;;;;;;;8.50;1.75;;;;;;;13.13;100.00;96771.78;5000216;28;20033;-68
2024/04/01 06:15:20;;;;;;;9.87;1.53;;;;;;;13.20;100.00;96738.66;5032368;28;20021;-68
2024/04/01 06:17:46;;;;;;;10.52;1.20;;;;;;;13.28;100.00;96761.88;4999229;28;20041;-69
2024/04/01 06:20:14;;;;;;;10.68;1.73;;;;;;;13.10;100.00;96744.28;4999997;28;20393;-70
2024/04/01 06:22:39;;;;;;;14.68;2.10;;;;;;;13.14;100.00;96787.25;4983202;28;20053;-68
2024/04/01 06:25:06;;;;;;;13.15;2.20;;;;;;;13.02;100.00;96763.59;5014730;28;20014;-68
2024/04/01 06:27:31;;;;;;;9.20;1.63;;;;;;;12.78;100.00;96704.28;4999086;28;20030;-67
2024/04/01 06:30:02;;;;;;;14.77;1.88;;;;;;;12.75;100.00;96746.41;5014890;28;20068;-71
2024/04/01 06:32:27;;;;;;;8.23;1.77;;;;;;;12.98;100.00;96778.06;4998687;28;20021;-69
2024/04/01 06:34:53;;;;;;;9.02;1.65;;;;;;;13.07;100.00;96802.91;5029483;28;20026;-68
2024/04/01 06:37:18;;;;;;;15.15;2.00;;;;;;;12.97;100.00;96796.50;4980918;28;20046;-67
2024/04/01 06:39:44;;;;;;;16.17;1.83;;;;;;;13.00;100.00;96806.56;4998446;28;20052;-72
2024/04/01 06:42:11;;;;;;;11.00;1.90;;;;;;;12.97;100.00;96820.00;4999058;28;20060;-67
2024/04/01 06:44:38;;;;;;;10.15;1.58;;;;;;;12.95;100.00;96827.22;4982834;28;20026;-69
2024/04/01 06:47:03;;;;;;;11.77;1.70;;;;;;;12.83;100.00;96814.81;5002994;28;20132;-71
2024/04/01 06:49:29;;;;;;;13.13;2.10;;;;;;;12.67;100.00;96795.16;4982784;28;20636;-68
2024/04/01 06:51:57;;;;;;;12.55;1.52;;;;;;;12.84;100.00;96834.66;5000179;28;20056;-70
2024/04/01 06:54:22;;;;;;;14.82;1.77;;;;;;;12.81;100.00;96842.06;4983112;28;20669;-71
2024/04/01 06:56:50;;;;;;;10.13;1.98;;;;;;;12.83;100.00;96840.06;4986084;28;20031;-70
2024/04/01 06:59:15;;;;;;;11.63;1.77;;;;;;;12.58;100.00;96819.03;5033946;28;20636;-71
2024/04/01 07:01:41;;;;;;;14.48;2.17;;;;;;;12.77;100.00;96865.16;5003789;28;20046;-69
2024/04/01 07:04:06;;;;;;;9.95;1.40;;;;;;;12.74;100.00;96846.50;4985276;28;20025;-68
2024/04/01 07:06:31;;;;;;;11.52;1.80;;;;;;;12.74;100.00;96862.13;5001559;28;20029;-70
2024/04/01 07:08:59;;;;;;;11.93;1.95;;;;;;;12.83;100.00;96874.78;5004555;28;20111;-71
2024/04/01 07:11:25;;;;;;;11.05;1.70;;;;;;;12.81;100.00;96899.44;4998320;28;20030;-70
2024/04/01 07:13:50;;;;;;;6.53;1.10;;;;;;;12.63;100.00;96848.72;5012561;28;20034;-71
2024/04/01 07:16:15;;;;;;;9.88;1.35;;;;;;;12.78;100.00;96856.31;5014611;28;20076;-70
2024/04/01 07:18:41;;;;;;;8.65;1.30;;;;;;;12.53;100.00;96842.28;5014744;28;20610;-69
2024/04/01 07:21:09;;;;;;;7.72;1.30;;;;;;;12.78;100.00;96887.63;4985166;28;20031;-70
2024/04/01 07:23:37;;;;;;;9.93;1.70;;;;;;;12.75;100.00;96905.47;5030314;28;20042;-68
2024/04/01 07:26:03;;;;;;;6.75;1.65;;;;;;;12.70;100.00;96911.28;5000873;28;20025;-71
2024/04/01 07:28:30;;;;;;;7.28;1.42;;;;;;;12.71;100.00;96902.47;4999894;28;21599;-73
2024/04/01 07:31:06;;;;;;;8.25;1.38;;;;;;;12.75;100.00;96905.47;4984521;28;20389;-72
2024/04/01 07:33:33;;;;;;;8.60;1.70;;;;;;;12.82;100.00;96906.28;4995708;28;20102;-70
2024/04/01 07:36:02;;;;;;;9.82;1.30;;;;;;;12.73;100.00;96916.09;5014887;28;20679;-72
2024/04/01 07:38:27;;;;;;;8.98;1.25;;;;;;;12.73;100.00;96930.97;5017610;28;20033;-70
2024/04/01 07:40:55;;;;;;;6.30;1.17;;;;;;;12.64;100.00;96918.09;5001462;28;20025;-70
2024/04/01 07:43:20;;;;;;;8.05;1.60;;;;;;;12.78;100.00;96894.66;5033853;28;20034;-71
2024/04/01 07:45:50;;;;;;;10.68;1.35;;;;;;;12.76;100.00;96899.25;5007161;28;20056;-69
2024/04/01 07:48:16;;;;;;;8.13;0.95;;;;;;;12.50;100.00;96872.97;5010613;28;20081;-68
2024/04/01 07:50:43;;;;;;;6.75;1.50;;;;;;;12.80;100.00;96923.94;5023511;28;20507;-67
2024/04/01 07:53:10;;;;;;;8.63;1.45;;;;;;;12.69;100.00;96927.94;4987966;28;20151;-69
2024/04/01 07:55:37;;;;;;;7.65;1.05;;;;;;;12.71;100.00;96946.78;5019567;28;20061;-69
2024/04/01 07:58:05;;;;;;;7.82;1.63;;;;;;;12.73;100.00;96941.38;5016308;28;20033;-68
2024/04/01 08:00:33;;;;;;;7.68;1.05;;;;;;;12.72;100.00;96944.97;4997971;28;20060;-70
2024/04/01 08:03:01;;;;;;;7.72;1.00;;;;;;;12.75;100.00;96944.59;5002517;28;20544;-68
2024/04/01 08:05:28;;;;;;;4.65;0.90;;;;;;;12.68;100.00;96955.00;5015695;28;20036;-72
2024/04/01 08:07:54;;;;;;;7.13;1.10;;;;;;;12.77;100.00;96958.25;4998671;28;20679;-70
2024/04/01 08:10:19;;;;;;;5.00;1.10;;;;;;;12.74;100.00;96959.44;4997550;28;20029;-73
2024/04/01 08:12:45;;;;;;;7.78;1.23;;;;;;;12.76;100.00;96957.44;4990894;28;20030;-69
2024/04/01 08:15:10;;;;;;;6.30;0.82;;;;;;;12.82;100.00;96974.88;5000122;28;20049;-69
2024/04/01 08:17:38;;;;;;;6.25;0.93;;;;;;;12.80;100.00;96950.03;4983598;28;20026;-71
2024/04/01 08:20:08;;;;;;;6.15;1.10;;;;;;;12.66;100.00;96921.31;4985993;28;20053;-68
2024/04/01 08:22:33;;;;;;;4.85;1.23;;;;;;;12.98;100.00;96962.47;5012126;28;20481;-69
2024/04/01 08:25:01;;;;;;;5.15;0.82;;;;;;;13.02;100.00;96972.31;4981839;28;20028;-67
2024/04/01 08:27:26;;;;;;;9.98;1.67;;;;;;;12.99;100.00;96966.69;4999776;28;20484;-69
2024/04/01 08:29:52;;;;;;;6.70;1.00;;;;;;;13.08;100.00;96965.47;5033882;28;20034;-66
2024/04/01 08:32:20;;;;;;;3.08;0.82;;;;;;;12.86;100.00;96931.75;4997943;28;20022;-66
2024/04/01 08:34:45;;;;;;;6.45;1.40;;;;;;;13.03;100.00;96962.66;5031666;28;20033;-65
2024/04/01 08:37:11;;;;;;;8.05;0.95;;;;;;;12.96;100.00;96965.28;5012728;28;20029;-64
2024/04/01 08:39:36;;;;;;;7.32;0.98;;;;;;;13.06;100.00;96977.91;4984384;28;20097;-66
2024/04/01 08:42:04;;;;;;;8.20;1.52;;;;;;;13.07;100.00;96987.38;4999541;28;20422;-65
2024/04/01 08:44:31;;;;;;;7.32;0.93;;;;;;;12.99;100.00;96956.25;4981658;28;20107;-67
2024/04/01 08:47:01;;;;;;;7.78;1.20;;;;;;;12.70;100.00;96939.97;4996254;28;20121;-66
2024/04/01 08:49:38;;;;;;;6.00;0.80;;;;;;;12.89;100.00;96973.09;4981488;28;20068;-68
2024/04/01 08:52:04;;;;;;;7.22;0.95;;;;;;;12.65;100.00;96921.53;4999705;28;20104;-65
2024/04/01 08:54:33;;;;;;;5.03;0.77;;;;;;;12.87;100.00;96982.94;5002757;28;20116;-66
2024/04/01 08:56:58;;;;;;;8.48;1.35;;;;;;;12.76;100.00;96967.88;4995693;28;20551;-67
2024/04/01 08:59:24;;;;;;;6.93;1.73;;;;;;;12.79;100.00;96964.84;5008850;28;20030;-65
2024/04/01 09:01:52;;;;;;;7.60;0.90;;;;;;;12.83;100.00;96971.28;5012478;28;20054;-65
2024/04/01 09:04:19;;;;;;;8.80;0.93;;;;;;;12.66;100.00;96931.72;4990135;28;20125;-69
2024/04/01 09:06:47;;;;;;;4.63;1.27;;;;;;;12.90;100.00;96973.88;5013700;28;20044;-66
2024/04/01 09:09:12;;;;;;;5.30;1.38;;;;;;;12.91;100.00;96985.94;4976907;28;20029;-64
2024/04/01 09:11:38;;;;;;;3.30;0.60;;;;;;;12.84;100.00;96993.75;4983559;28;20030;-65
2024/04/01 09:14:05;;;;;;;5.22;0.82;;;;;;;12.79;100.00;97013.59;4996325;28;20037;-65
2024/04/01 09:16:33;;;;;;;6.38;1.23;;;;;;;12.66;100.00;96972.66;5007732;28;20691;-64
2024/04/01 09:19:07;;;;;;;5.65;0.73;;;;;;;12.76;100.00;97000.94;4980424;28;20030;-65
2024/04/01 09:21:35;;;;;;;4.53;0.70;;;;;;;12.83;100.00;96994.78;5002110;28;20833;-67
2024/04/01 09:24:03;;;;;;;6.65;0.80;;;;;;;12.63;100.00;96954.78;5013680;28;20786;-70
2024/04/01 09:26:32;;;;;;;8.48;1.08;;;;;;;12.71;100.00;96980.69;4999753;28;20022;-70
2024/04/01 09:28:58;;;;;;;6.88;1.13;;;;;;;12.72;100.00;96987.50;5011816;28;20022;-69
2024/04/01 09:31:23;;;;;;;7.38;0.93;;;;;;;12.72;100.00;96984.91;4995979;28;20041;-66
2024/04/01 09:33:52;;;;;;;4.43;1.05;;;;;;;12.74;100.00;96976.88;5013729;28;20038;-66
2024/04/01 09:36:18;;;;;;;8.40;1.20;;;;;;;12.60;100.00;96992.50;4998343;28;20136;-66
2024/04/01 09:38:44;;;;;;;4.10;0.70;;;;;;;12.69;100.00;96995.75;4999330;28;20422;-67
2024/04/01 09:41:09;;;;;;;4.95;1.15;;;;;;;12.65;100.00;96982.28;5014505;28;20057;-67
2024/04/01 09:43:35;;;;;;;8.52;1.05;;;;;;;12.61;100.00;96988.09;4997124;28;20173;-65
2024/04/01 09:46:00;;;;;;;5.97;1.00;;;;;;;12.51;100.00;96959.78;5012726;28;20029;-67
2024/04/01 09:48:30;;;;;;;5.43;1.02;;;;;;;12.71;100.00;96985.91;4995973;28;20030;-69
2024/04/01 09:50:59;;;;;;;6.75;0.93;;;;;;;12.69;100.00;97001.75;4981265;28;20021;-67
2024/04/01 09:53:25;;;;;;;5.70;0.90;;;;;;;12.64;100.00;97008.56;4998392;28;20083;-68
2024/04/01 09:55:54;;;;;;;5.30;1.00;;;;;;;12.63;100.00;96986.09;4996541;28;20397;-65
2024/04/01 09:58:44;;;;;;;7.53;1.10;;;;;;;12.59;100.00;97003.91;5008667;28;20025;-68
2024/04/01 10:01:14;;;;;;;5.85;1.73;;;;;;;12.66;100.00;96994.31;5031922;28;20064;-66
2024/04/01 10:04:04;;;;;;;4.88;1.10;;;;;;;12.79;100.00;97003.16;4997708;28;20041;-66
2024/04/01 10:06:54;;;;;;;5.45;1.00;;;;;;;12.89;100.00;97001.00;4998071;28;20030;-66
2024/04/01 10:09:41;;;;;;;6.03;1.05;;;;;;;12.93;100.00;97004.00;5013907;28;20061;-67
2024/04/01 10:12:28;;;;;;;5.38;1.00;;;;;;;12.80;100.00;97002.19;4995165;28;20029;-66
2024/04/01 10:15:14;;;;;;;6.63;1.30;;;;;;;12.84;100.00;97000.78;5000035;28;20041;-67
2024/04/01 10:17:49;;;;;;;8.02;1.20;;;;;;;12.81;100.00;97007.22;4990950;28;20042;-66
2024/04/01 10:20:38;;;;;;;5.18;1.00;;;;;;;12.68;100.00;96988.91;4998673;28;20030;-66
2024/04/01 10:23:29;;;;;;;6.18;1.00;;;;;;;12.86;100.00;97006.59;4992593;28;20038;-67
2024/04/01 10:26:13;;;;;;;6.13;1.00;;;;;;;12.96;100.00;96951.41;4995626;28;20030;-66
2024/04/01 10:29:02;;;;;;;4.85;1.13;;;;;;;13.45;100.00;96999.81;4994493;28;20803;-65
2024/04/01 10:31:47;;;;;;;5.47;0.88;;;;;;;13.66;100.00;96988.34;4991124;28;20084;-66
2024/04/01 10:34:34;;;;;;;5.88;0.90;;;;;;;13.82;100.00;96997.56;4997126;28;20244;-67
2024/04/01 10:37:12;;;;;;;6.18;1.10;;;;;;;14.02;100.00;96994.91;4976666;28;20018;-65
2024/04/01 10:39:53;;;;;;;6.57;1.20;;;;;;;14.11;100.00;96985.84;4997360;28;20026;-68
2024/04/01 10:42:40;;;;;;;5.80;1.50;;;;;;;14.22;100.00;97016.53;4998764;28;20057;-67
2024/04/01 10:45:11;;;;;;;5.22;1.10;;;;;;;14.22;100.00;96993.03;4994065;28;20389;-67
2024/04/01 10:48:16;;;;;;;8.40;1.33;;;;;;;14.13;100.00;96996.09;4998449;28;20711;-64
2024/04/01 10:51:18;;;;;;;6.85;0.95;;;;;;;14.25;100.00;96991.78;4990899;28;20040;-70
2024/04/01 10:53:58;;;;;;;8.25;1.30;;;;;;;14.31;100.00;96993.59;4994903;28;20096;-66
2024/04/01 10:56:55;;;;;;;8.75;1.10;;;;;;;14.48;100.00;97004.38;5028801;28;20117;-66
2024/04/01 10:59:48;;;;;;;5.68;0.80;;;;;;;14.65;100.00;96999.47;4996183;28;20030;-70
2024/04/01 11:02:54;;;;;;;7.78;1.50;;;;;;;14.79;100.00;96980.06;5001093;28;20050;-65
2024/04/01 11:05:55;;;;;;;5.07;1.17;;;;;;;14.85;100.00;96998.56;4992075;28;20030;-68
2024/04/01 11:08:26;;;;;;;6.18;1.10;;;;;;;14.77;100.00;96995.19;4997247;28;20561;-66
2024/04/01 11:11:07;;;;;;;5.00;0.80;;;;;;;14.81;100.00;96977.25;4992941;28;20033;-66
2024/04/01 11:13:37;;;;;;;5.22;1.00;;;;;;;14.57;100.00;96950.84;5007932;28;20109;-66
2024/04/01 11:16:03;;;;;;;10.63;2.15;;;;;;;14.55;100.00;97004.34;4988153;28;20128;-66
2024/04/01 11:18:42;;;;;;;6.13;1.20;;;;;;;14.49;100.00;97000.72;5031276;28;20514;-67
2024/04/01 11:21:37;;;;;;;6.55;1.10;;;;;;;14.33;100.00;97014.28;4996212;28;20030;-67
2024/04/01 11:24:17;;;;;;;5.70;1.00;;;;;;;14.28;100.00;97025.38;4992791;28;20137;-65
2024/04/01 11:26:54;;;;;;;4.68;1.45;;;;;;;14.30;100.00;97007.66;4995590;28;20475;-66
2024/04/01 11:29:38;;;;;;;4.22;0.95;;;;;;;14.19;100.00;97016.16;4995286;28;20096;-66